createdAt,value
2018-12-25T00:02:01.330Z,100074.59
2018-12-25T00:04:27.673Z,100082.81
2018-12-25T00:06:53.944Z,100083.72
2018-12-25T00:09:20.197Z,100073.05
2018-12-25T00:11:46.453Z,100077.02
2018-12-25T00:14:12.703Z,100072.36
2018-12-25T00:16:38.954Z,100064.71
2018-12-25T00:19:06.274Z,100063.53
2018-12-25T00:21:33.454Z,100055.03
2018-12-25T00:23:59.715Z,100057.27
2018-12-25T00:26:26.064Z,100040.61
2018-12-25T00:28:52.323Z,100041.13
2018-12-25T00:31:18.575Z,100039.89
2018-12-25T00:33:44.835Z,100041.24
2018-12-25T00:36:11.085Z,100028.84
2018-12-25T00:38:37.453Z,100029.77
2018-12-25T00:41:03.805Z,100026.76
2018-12-25T00:43:30.066Z,100026.39
2018-12-25T00:45:56.315Z,100022.19
2018-12-25T00:48:22.577Z,100022.63
2018-12-25T00:50:48.931Z,100011.92
2018-12-25T00:53:15.199Z,100017.13
2018-12-25T00:55:41.449Z,100017.59
2018-12-25T00:58:07.709Z,100008.59
2018-12-25T01:00:33.957Z,100006.03
2018-12-25T01:03:00.202Z,99997.91
2018-12-25T01:05:26.467Z,99996.27
2018-12-25T01:07:52.817Z,99995.92
2018-12-25T01:10:19.083Z,99983.10
2018-12-25T01:12:45.328Z,99973.30
2018-12-25T01:15:11.718Z,99981.53
2018-12-25T01:17:38.061Z,99977.29
2018-12-25T01:20:04.323Z,99976.02
2018-12-25T01:22:30.672Z,99971.28
2018-12-25T01:24:56.936Z,99970.86
2018-12-25T01:27:23.204Z,99967.85
2018-12-25T01:29:49.467Z,99966.14
2018-12-25T01:32:15.712Z,99961.86
2018-12-25T01:34:41.970Z,99958.02
2018-12-25T01:37:08.319Z,99952.02
2018-12-25T01:39:34.681Z,99949.44
2018-12-25T01:42:00.933Z,99937.81
2018-12-25T01:44:27.179Z,99936.08
2018-12-25T01:46:53.448Z,99935.23
2018-12-25T01:49:19.808Z,99930.07
2018-12-25T01:51:46.072Z,99925.32
2018-12-25T01:54:12.423Z,99917.97
2018-12-25T01:56:38.679Z,99904.59
2018-12-25T01:59:05.028Z,99903.73
2018-12-25T02:01:31.288Z,99894.67
2018-12-25T02:03:57.535Z,99891.23
2018-12-25T02:06:23.901Z,99887.31
2018-12-25T02:08:50.154Z,99879.56
2018-12-25T02:11:16.523Z,99869.20
2018-12-25T02:13:42.860Z,99864.87
2018-12-25T02:19:03.367Z,99853.20
2018-12-25T02:21:29.633Z,99854.05
2018-12-25T02:23:55.887Z,99848.45
2018-12-25T02:26:22.148Z,99845.85
2018-12-25T02:28:48.401Z,99848.05
2018-12-25T02:31:14.669Z,99836.00
2018-12-25T02:33:41.028Z,99826.08
2018-12-25T02:36:07.381Z,99826.09
2018-12-25T02:38:33.738Z,99821.77
2018-12-25T02:41:00.104Z,99807.14
2018-12-25T02:43:26.462Z,99801.13
2018-12-25T02:45:52.797Z,99810.63
2018-12-25T02:48:19.061Z,99796.86
2018-12-25T02:50:45.414Z,99791.67
2018-12-25T02:53:11.666Z,99786.52
2018-12-25T02:55:37.900Z,99785.66
2018-12-25T02:58:04.259Z,99782.22
2018-12-25T03:00:30.617Z,99784.30
2018-12-25T03:02:56.881Z,99788.16
2018-12-25T03:05:23.133Z,99789.06
2018-12-25T03:07:49.443Z,99788.63
2018-12-25T03:10:15.797Z,99789.50
2018-12-25T03:12:42.047Z,99792.12
2018-12-25T03:15:08.420Z,99787.84
2018-12-25T03:17:34.767Z,99782.63
2018-12-25T03:20:01.002Z,99775.73
2018-12-25T03:22:27.249Z,99772.75
2018-12-25T03:24:53.501Z,99768.44
2018-12-25T03:27:19.769Z,99769.73
2018-12-25T03:29:46.122Z,99758.09
2018-12-25T03:32:12.390Z,99752.91
2018-12-25T03:34:38.628Z,99740.01
2018-12-25T03:37:05.009Z,99736.53
2018-12-25T03:39:31.346Z,99732.61
2018-12-25T03:42:39.016Z,99733.89
2018-12-25T03:45:05.272Z,99723.56
2018-12-25T03:47:31.636Z,99723.97
2018-12-25T03:49:57.891Z,99718.33
2018-12-25T03:52:24.151Z,99715.69
2018-12-25T03:54:50.404Z,99720.45
2018-12-25T03:57:16.758Z,99722.59
2018-12-25T03:59:43.018Z,99719.16
2018-12-25T04:02:09.260Z,99719.61
2018-12-25T04:04:35.528Z,99718.77
2018-12-25T04:07:01.764Z,99725.27
2018-12-25T04:09:28.038Z,99721.42
2018-12-25T04:11:54.288Z,99719.25
2018-12-25T04:14:20.544Z,99712.37
2018-12-25T04:16:46.914Z,99706.75
2018-12-25T04:19:13.159Z,99705.48
2018-12-25T04:21:39.431Z,99686.94
2018-12-25T04:24:05.796Z,99684.78
2018-12-25T04:26:32.140Z,99678.77
2018-12-25T04:28:58.426Z,99669.31
2018-12-25T04:31:24.682Z,99657.66
2018-12-25T04:33:50.934Z,99664.13
2018-12-25T04:36:17.191Z,99662.88
2018-12-25T04:38:43.545Z,99665.44
2018-12-25T04:41:09.795Z,99658.94
2018-12-25T04:43:36.060Z,99651.63
2018-12-25T04:46:02.423Z,99643.87
2018-12-25T04:48:28.677Z,99646.88
2018-12-25T04:50:54.916Z,99652.91
2018-12-25T04:53:21.256Z,99655.52
2018-12-25T04:55:47.540Z,99658.56
2018-12-25T04:58:13.875Z,99646.48
2018-12-25T05:00:40.137Z,99652.08
2018-12-25T05:03:06.376Z,99644.33
2018-12-25T05:05:32.626Z,99638.28
2018-12-25T05:07:58.868Z,99632.20
2018-12-25T05:10:25.131Z,99620.98
2018-12-25T05:12:51.367Z,99628.73
2018-12-25T05:15:17.633Z,99622.22
2018-12-25T05:17:43.867Z,99619.52
2018-12-25T05:20:10.124Z,99616.05
2018-12-25T05:22:36.475Z,99603.52
2018-12-25T05:25:02.733Z,99600.07
2018-12-25T05:27:29.121Z,99597.43
2018-12-25T05:29:55.363Z,99590.08
2018-12-25T05:32:21.608Z,99593.09
2018-12-25T05:34:47.869Z,99601.72
2018-12-25T05:37:14.102Z,99602.18
2018-12-25T05:39:40.340Z,99600.97
2018-12-25T05:42:06.603Z,99587.13
2018-12-25T05:44:32.879Z,99581.09
2018-12-25T05:46:59.136Z,99576.86
2018-12-25T05:49:25.498Z,99573.00
2018-12-25T05:51:51.849Z,99579.45
2018-12-25T05:54:18.092Z,99580.30
2018-12-25T05:56:44.342Z,99580.78
2018-12-25T05:59:10.686Z,99584.26
2018-12-25T06:01:37.044Z,99578.67
2018-12-25T06:04:03.395Z,99575.27
2018-12-25T06:06:29.651Z,99577.48
2018-12-25T06:08:55.887Z,99576.20
2018-12-25T06:11:22.291Z,99577.95
2018-12-25T06:13:48.529Z,99582.31
2018-12-25T06:16:14.887Z,99576.75
2018-12-25T06:18:41.227Z,99572.88
2018-12-25T06:21:07.481Z,99588.42
2018-12-25T06:23:33.819Z,99580.72
2018-12-25T06:26:00.057Z,99579.46
2018-12-25T06:28:26.310Z,99576.05
2018-12-25T06:30:52.460Z,99564.00
2018-12-25T06:33:18.819Z,99560.14
2018-12-25T06:35:45.072Z,99551.55
2018-12-25T06:38:11.528Z,99554.14
2018-12-25T06:40:37.792Z,99544.72
2018-12-25T06:43:04.166Z,99551.61
2018-12-25T06:45:30.415Z,99544.73
2018-12-25T06:47:56.682Z,99544.33
2018-12-25T06:50:22.935Z,99545.23
2018-12-25T06:52:49.203Z,99538.78
2018-12-25T06:55:15.571Z,99543.97
2018-12-25T06:57:41.827Z,99548.27
2018-12-25T07:00:08.085Z,99548.70
2018-12-25T07:02:34.345Z,99548.31
2018-12-25T07:05:00.691Z,99544.86
2018-12-25T07:07:26.941Z,99553.06
2018-12-25T07:09:53.208Z,99557.80
2018-12-25T07:12:19.463Z,99561.66
2018-12-25T07:14:45.723Z,99560.39
2018-12-25T07:17:11.974Z,99562.52
2018-12-25T07:19:38.332Z,99562.96
2018-12-25T07:22:04.692Z,99559.10
2018-12-25T07:24:30.948Z,99568.13
2018-12-25T07:26:57.195Z,99570.67
2018-12-25T07:29:23.475Z,99581.82
2018-12-25T07:31:49.825Z,99577.52
2018-12-25T07:34:16.088Z,99580.52
2018-12-25T07:36:42.340Z,99569.35
2018-12-25T07:39:08.612Z,99568.06
2018-12-25T07:41:34.863Z,99563.33
2018-12-25T07:44:01.127Z,99565.87
2018-12-25T07:46:27.385Z,99557.27
2018-12-25T07:48:53.756Z,99566.26
2018-12-25T07:51:20.907Z,99567.06
2018-12-25T07:53:48.384Z,99561.05
2018-12-25T07:56:14.762Z,99566.19
2018-12-25T07:58:41.007Z,99558.48
2018-12-25T08:01:07.272Z,99549.05
2018-12-25T08:03:33.623Z,99545.17
2018-12-25T08:05:59.891Z,99542.60
2018-12-25T08:08:26.139Z,99542.17
2018-12-25T08:10:52.415Z,99544.77
2018-12-25T08:13:18.768Z,99547.41
2018-12-25T08:15:45.025Z,99547.41
2018-12-25T08:18:11.281Z,99540.61
2018-12-25T08:20:37.647Z,99540.17
2018-12-25T08:23:03.907Z,99544.92
2018-12-25T08:25:30.358Z,99556.51
2018-12-25T08:27:56.607Z,99562.52
2018-12-25T08:30:22.856Z,99562.10
2018-12-25T08:32:49.116Z,99563.39
2018-12-25T08:35:15.370Z,99553.48
2018-12-25T08:37:41.736Z,99556.94
2018-12-25T08:40:08.084Z,99553.94
2018-12-25T08:42:34.349Z,99549.64
2018-12-25T08:45:00.600Z,99553.91
2018-12-25T08:47:26.874Z,99553.92
2018-12-25T08:49:53.132Z,99547.45
2018-12-25T08:52:19.397Z,99549.59
2018-12-25T08:54:45.654Z,99553.88
2018-12-25T08:57:11.911Z,99554.30
2018-12-25T08:59:38.157Z,99555.11
2018-12-25T09:02:04.427Z,99549.03
2018-12-25T09:04:30.684Z,99550.77
2018-12-25T09:06:56.948Z,99544.30
2018-12-25T09:09:23.204Z,99552.48
2018-12-25T09:11:49.460Z,99543.84
2018-12-25T09:16:53.221Z,99554.09
2018-12-25T09:19:19.489Z,99539.89
2018-12-25T09:21:46.392Z,99537.28
2018-12-25T09:24:14.016Z,99535.55
2018-12-25T09:26:40.369Z,99524.80
2018-12-25T09:29:06.654Z,99517.40
2018-12-25T09:31:32.902Z,99520.44
2018-12-25T09:33:59.167Z,99515.33
2018-12-25T09:36:25.416Z,99514.88
2018-12-25T09:38:51.785Z,99511.05
2018-12-25T09:41:18.135Z,99520.98
2018-12-25T09:43:44.387Z,99516.31
2018-12-25T09:46:10.629Z,99509.84
2018-12-25T09:48:36.896Z,99508.58
2018-12-25T09:51:03.261Z,99504.73
2018-12-25T09:53:29.528Z,99501.34
2018-12-25T09:55:55.891Z,99506.09
2018-12-25T09:58:22.164Z,99505.68
2018-12-25T10:00:48.428Z,99509.15
2018-12-25T10:03:14.766Z,99510.44
2018-12-25T10:05:41.018Z,99505.66
2018-12-25T10:08:07.272Z,99499.20
2018-12-25T10:10:33.540Z,99501.34
2018-12-25T10:12:59.787Z,99500.47
2018-12-25T10:15:26.052Z,99490.91
2018-12-25T10:17:52.408Z,99482.11
2018-12-25T10:20:18.823Z,99469.95
2018-12-25T10:22:45.131Z,99485.00
2018-12-25T10:25:11.398Z,99464.50
2018-12-25T10:27:37.766Z,99464.26
2018-12-25T10:30:45.420Z,99457.45
2018-12-25T10:33:11.768Z,99466.98
2018-12-25T10:35:38.031Z,99460.20
2018-12-25T10:38:04.284Z,99449.38
2018-12-25T10:40:30.548Z,99448.10
2018-12-25T10:42:56.804Z,99448.19
2018-12-25T10:45:23.060Z,99428.95
2018-12-25T10:47:49.306Z,99436.15
2018-12-25T10:50:15.583Z,99414.27
2018-12-25T10:52:41.820Z,99412.59
2018-12-25T10:55:08.160Z,99423.09
2018-12-25T10:57:34.423Z,99419.14
2018-12-25T11:00:00.680Z,99414.75
2018-12-25T11:02:26.927Z,99419.89
2018-12-25T11:04:53.164Z,99432.42
2018-12-25T11:07:19.415Z,99426.14
2018-12-25T11:09:45.751Z,99413.39
2018-12-25T11:12:12.132Z,99413.44
2018-12-25T11:14:38.487Z,99403.59
2018-12-25T11:17:04.844Z,99397.91
2018-12-25T11:19:31.187Z,99403.15
2018-12-25T11:21:57.551Z,99402.64
2018-12-25T11:24:23.804Z,99393.06
2018-12-25T11:26:50.256Z,99391.55
2018-12-25T11:29:16.611Z,99402.48
2018-12-25T11:31:42.887Z,99400.89
2018-12-25T11:34:09.261Z,99395.27
2018-12-25T11:36:35.621Z,99411.04
2018-12-25T11:39:01.954Z,99402.61
2018-12-25T11:41:28.195Z,99403.43
2018-12-25T11:43:54.559Z,99404.35
2018-12-25T11:46:20.905Z,99405.05
2018-12-25T11:48:47.162Z,99395.07
2018-12-25T11:51:13.405Z,99399.95
2018-12-25T11:53:39.759Z,99393.67
2018-12-25T11:56:06.003Z,99387.73
2018-12-25T11:58:32.260Z,99379.64
2018-12-25T12:00:58.600Z,99382.80
2018-12-25T12:03:24.856Z,99389.41
2018-12-25T12:05:51.195Z,99387.36
2018-12-25T12:08:17.449Z,99389.14
2018-12-25T12:10:43.692Z,99390.52
2018-12-25T12:13:09.944Z,99386.73
2018-12-25T12:15:36.189Z,99380.14
2018-12-25T12:18:02.659Z,99367.66
2018-12-25T12:20:28.895Z,99371.61
2018-12-25T12:22:55.235Z,99365.67
2018-12-25T12:25:21.490Z,99363.67
2018-12-25T12:27:47.734Z,99364.66
2018-12-25T12:30:13.988Z,99359.30
2018-12-25T12:32:40.241Z,99355.41
2018-12-25T12:35:06.593Z,99342.54
2018-12-25T12:37:32.837Z,99333.59
2018-12-25T12:39:59.202Z,99334.89
2018-12-25T12:42:25.447Z,99338.02
2018-12-25T12:44:51.700Z,99330.30
2018-12-25T12:47:17.953Z,99334.73
2018-12-25T12:49:44.304Z,99330.47
2018-12-25T12:52:10.686Z,99333.93
2018-12-25T12:54:36.940Z,99348.30
2018-12-25T12:57:44.591Z,99344.95
2018-12-25T13:00:10.972Z,99349.27
2018-12-25T13:02:37.212Z,99351.80
2018-12-25T13:05:44.873Z,99344.45
2018-12-25T13:08:11.218Z,99346.14
2018-12-25T13:10:37.583Z,99352.72
2018-12-25T13:13:03.924Z,99353.59
2018-12-25T13:15:30.182Z,99359.68
2018-12-25T13:17:56.425Z,99353.55
2018-12-25T13:20:22.679Z,99362.55
2018-12-25T13:22:54.039Z,99373.41
2018-12-25T13:25:17.285Z,99370.88
2018-12-25T13:27:43.567Z,99376.06
2018-12-25T13:30:09.845Z,99374.42
2018-12-25T13:32:36.103Z,99372.80
2018-12-25T13:35:02.448Z,99373.70
2018-12-25T13:37:28.704Z,99375.11
2018-12-25T13:39:55.064Z,99365.23
2018-12-25T13:42:21.421Z,99369.58
2018-12-25T13:44:47.660Z,99370.88
2018-12-25T13:47:13.916Z,99364.35
2018-12-25T13:49:40.152Z,99361.34
2018-12-25T13:52:06.555Z,99357.45
2018-12-25T13:54:39.772Z,99343.16
2018-12-25T13:57:06.010Z,99353.91
2018-12-25T13:59:32.262Z,99352.34
2018-12-25T14:01:58.515Z,99359.16
2018-12-25T14:04:24.758Z,99350.63
2018-12-25T14:06:51.120Z,99347.15
2018-12-25T14:09:17.373Z,99344.72
2018-12-25T14:11:43.629Z,99345.27
2018-12-25T14:14:09.880Z,99349.84
2018-12-25T14:16:36.123Z,99348.87
2018-12-25T14:19:02.486Z,99343.00
2018-12-25T14:21:28.726Z,99342.11
2018-12-25T14:23:54.983Z,99333.69
2018-12-25T14:26:21.344Z,99336.36
2018-12-25T14:28:47.596Z,99316.88
2018-12-25T14:31:13.846Z,99323.88
2018-12-25T14:33:40.096Z,99327.05
2018-12-25T14:36:06.452Z,99320.64
2018-12-25T14:38:32.709Z,99321.60
2018-12-25T14:40:59.046Z,99323.89
2018-12-25T14:43:25.388Z,99321.69
2018-12-25T14:45:51.624Z,99318.34
2018-12-25T14:48:17.876Z,99324.52
2018-12-25T14:50:44.127Z,99337.32
2018-12-25T14:53:10.495Z,99346.70
2018-12-25T14:55:36.760Z,99352.56
2018-12-25T14:58:02.999Z,99363.22
2018-12-25T15:00:29.364Z,99371.43
2018-12-25T15:02:55.616Z,99356.47
2018-12-25T15:05:21.987Z,99365.87
2018-12-25T15:07:48.326Z,99370.77
2018-12-25T15:10:14.703Z,99370.47
2018-12-25T15:12:40.956Z,99333.75
2018-12-25T15:15:07.215Z,99345.37
2018-12-25T15:17:33.571Z,99355.39
2018-12-25T15:19:59.811Z,99350.81
2018-12-25T15:22:26.178Z,99358.45
2018-12-25T15:24:52.518Z,99375.56
2018-12-25T15:27:18.772Z,99365.77
2018-12-25T15:29:45.128Z,99362.36
2018-12-25T15:32:11.482Z,99365.94
2018-12-25T15:34:37.816Z,99370.09
2018-12-25T15:37:04.068Z,99370.25
2018-12-25T15:39:30.313Z,99384.33
2018-12-25T15:41:56.568Z,99386.28
2018-12-25T15:44:22.817Z,99393.39
2018-12-25T15:46:49.071Z,99396.68
2018-12-25T15:49:15.319Z,99390.64
2018-12-25T15:51:41.585Z,99395.53
2018-12-25T15:54:07.935Z,99395.91
2018-12-25T15:56:34.194Z,99400.46
2018-12-25T15:59:00.432Z,99396.63
2018-12-25T16:01:26.674Z,99416.81
2018-12-25T16:03:53.030Z,99418.25
2018-12-25T16:06:19.367Z,99415.29
2018-12-25T16:08:45.620Z,99420.34
2018-12-25T16:11:11.879Z,99420.36
2018-12-25T16:13:38.235Z,99419.36
2018-12-25T16:16:04.479Z,99429.23
2018-12-25T16:18:30.840Z,99439.78
2018-12-25T16:20:57.084Z,99438.23
2018-12-25T16:23:23.461Z,99434.02
2018-12-25T16:25:49.802Z,99441.03
2018-12-25T16:28:16.235Z,99437.23
2018-12-25T16:30:42.476Z,99439.09
2018-12-25T16:33:08.722Z,99426.12
2018-12-25T16:35:35.075Z,99443.86
2018-12-25T16:38:01.415Z,99445.92
2018-12-25T16:40:27.781Z,99452.64
2018-12-25T16:42:54.117Z,99448.37
2018-12-25T16:45:20.475Z,99460.25
2018-12-25T16:47:46.715Z,99473.47
2018-12-25T16:50:13.081Z,99467.84
2018-12-25T16:52:39.421Z,99481.34
2018-12-25T16:55:05.797Z,99487.53
2018-12-25T16:57:32.049Z,99488.59
2018-12-25T16:59:58.299Z,99481.20
2018-12-25T17:02:24.539Z,99479.66
2018-12-25T17:04:50.780Z,99479.35
2018-12-25T17:07:17.032Z,99493.41
2018-12-25T17:09:43.275Z,99494.90
2018-12-25T17:12:09.551Z,99510.60
2018-12-25T17:14:35.792Z,99514.66
2018-12-25T17:17:02.144Z,99517.34
2018-12-25T17:19:28.382Z,99523.13
2018-12-25T17:21:54.636Z,99531.09
2018-12-25T17:24:20.874Z,99527.73
2018-12-25T17:26:47.227Z,99540.23
2018-12-25T17:29:13.567Z,99538.98
2018-12-25T17:34:11.898Z,99543.42
2018-12-25T17:36:38.139Z,99541.73
2018-12-25T17:39:45.809Z,99543.58
2018-12-25T17:42:12.093Z,99538.43
2018-12-25T17:44:38.339Z,99540.02
2018-12-25T17:47:04.607Z,99539.52
2018-12-25T17:49:30.956Z,99541.26
2018-12-25T17:51:57.199Z,99545.58
2018-12-25T17:54:23.504Z,99551.69
2018-12-25T17:56:49.752Z,99548.60
2018-12-25T17:59:16.004Z,99554.23
2018-12-25T18:01:42.346Z,99550.01
2018-12-25T18:04:08.716Z,99542.27
2018-12-25T18:06:34.948Z,99533.20
2018-12-25T18:09:01.188Z,99535.69
2018-12-25T18:11:27.563Z,99539.14
2018-12-25T18:13:53.938Z,99544.27
2018-12-25T18:16:20.168Z,99549.03
2018-12-25T18:18:46.501Z,99541.95
2018-12-25T18:21:12.765Z,99539.42
2018-12-25T18:23:39.129Z,99549.47
2018-12-25T18:26:05.485Z,99545.63
2018-12-25T18:28:31.752Z,99551.30
2018-12-25T18:30:57.988Z,99548.66
2018-12-25T18:33:24.334Z,99553.80
2018-12-25T18:35:50.591Z,99548.28
2018-12-25T18:38:16.845Z,99536.55
2018-12-25T18:40:43.087Z,99541.69
2018-12-25T18:43:09.328Z,99549.58
2018-12-25T18:45:35.591Z,99549.81
2018-12-25T18:48:01.932Z,99542.02
2018-12-25T18:50:28.188Z,99554.17
2018-12-25T18:52:54.444Z,99554.28
2018-12-25T18:55:20.855Z,99557.37
2018-12-25T18:57:47.195Z,99562.52
2018-12-25T19:00:13.556Z,99564.61
2018-12-25T19:02:39.796Z,99567.64
2018-12-25T19:05:06.050Z,99574.56
2018-12-25T19:07:32.398Z,99570.34
2018-12-25T19:09:58.644Z,99567.36
2018-12-25T19:12:24.920Z,99569.62
2018-12-25T19:18:04.879Z,99569.29
2018-12-25T19:23:49.961Z,99567.22
2018-12-25T19:26:16.248Z,99575.00
2018-12-25T19:28:42.602Z,99572.74
2018-12-25T19:31:08.840Z,99568.80
2018-12-25T19:33:35.093Z,99569.30
2018-12-25T19:36:01.353Z,99575.20
2018-12-25T19:38:27.610Z,99569.23
2018-12-25T19:40:53.857Z,99560.00
2018-12-25T19:43:20.110Z,99561.63
2018-12-25T19:48:53.829Z,99567.05
2018-12-25T19:51:20.184Z,99575.61
2018-12-25T19:53:46.535Z,99567.37
2018-12-25T19:56:12.775Z,99563.81
2018-12-25T19:58:39.038Z,99576.85
2018-12-25T20:01:05.279Z,99571.31
2018-12-25T20:04:12.936Z,99573.05
2018-12-25T20:07:18.685Z,99568.25
2018-12-25T20:10:26.353Z,99574.25
2018-12-25T20:13:34.027Z,99573.33
2018-12-25T20:22:54.450Z,99581.17
2018-12-25T20:26:02.124Z,99585.89
2018-12-25T20:29:07.960Z,99587.61
2018-12-25T20:32:13.825Z,99587.24
2018-12-25T20:35:19.693Z,99587.33
2018-12-25T20:38:25.550Z,99573.50
2018-12-25T20:41:35.271Z,99576.19
2018-12-25T20:50:55.424Z,99592.91
2018-12-25T20:54:03.102Z,99583.92
2018-12-25T21:00:22.788Z,99588.79
2018-12-25T21:03:28.660Z,99586.16
2018-12-25T21:06:36.344Z,99587.10
2018-12-25T21:15:43.212Z,99583.92
2018-12-25T21:18:49.164Z,99580.52
2018-12-25T21:21:56.817Z,99584.41
2018-12-25T21:25:09.696Z,99581.05
2018-12-25T21:30:30.375Z,99592.02
2018-12-25T21:32:56.619Z,99600.67
2018-12-25T21:35:22.885Z,99593.75
2018-12-25T21:37:49.225Z,99589.42
2018-12-25T21:40:15.566Z,99584.14
2018-12-25T21:42:42.021Z,99585.76
2018-12-25T21:48:08.880Z,99584.69
2018-12-25T21:50:35.128Z,99588.97
2018-12-25T21:53:42.815Z,99588.05
2018-12-25T21:56:09.059Z,99584.47
2018-12-25T21:59:16.715Z,99586.95
2018-12-25T22:07:09.244Z,99602.50
2018-12-25T22:09:35.583Z,99602.88
2018-12-25T22:12:01.843Z,99597.95
2018-12-25T22:14:28.203Z,99600.79
2018-12-25T22:16:54.442Z,99608.91
2018-12-25T22:19:20.706Z,99610.70
2018-12-25T22:21:46.963Z,99614.53
2018-12-25T22:24:13.207Z,99615.42
2018-12-25T22:26:39.477Z,99598.45
2018-12-25T22:29:05.742Z,99611.72
2018-12-25T22:31:32.047Z,99615.92
2018-12-25T22:33:58.294Z,99610.34
2018-12-25T22:36:24.632Z,99605.08
2018-12-25T22:38:50.895Z,99616.66
2018-12-25T22:41:17.137Z,99618.27
2018-12-25T22:43:43.391Z,99612.70
2018-12-25T22:46:09.736Z,99620.08
2018-12-25T22:48:36.091Z,99632.22
2018-12-25T22:51:02.435Z,99626.74
2018-12-25T22:53:28.770Z,99624.97
2018-12-25T22:55:55.019Z,99623.28
2018-12-25T22:58:21.379Z,99625.72
2018-12-25T23:01:29.041Z,99627.44
2018-12-25T23:03:55.384Z,99632.03
2018-12-25T23:06:21.646Z,99638.20
2018-12-25T23:08:47.887Z,99635.23
2018-12-25T23:11:14.237Z,99630.48
2018-12-25T23:13:40.603Z,99636.17
2018-12-25T23:16:08.027Z,99634.87
2018-12-25T23:18:35.024Z,99627.94
2018-12-25T23:21:01.390Z,99636.16
2018-12-25T23:23:27.623Z,99633.20
2018-12-25T23:25:53.979Z,99630.97
2018-12-25T23:28:20.227Z,99636.22
2018-12-25T23:30:46.486Z,99631.97
2018-12-25T23:33:12.827Z,99640.52
2018-12-25T23:35:39.183Z,99631.78
2018-12-25T23:38:05.423Z,99634.55
2018-12-25T23:40:31.780Z,99641.75
2018-12-25T23:42:58.020Z,99637.76
2018-12-25T23:45:24.280Z,99633.12
2018-12-25T23:47:50.523Z,99636.77
2018-12-25T23:50:16.759Z,99651.08
2018-12-25T23:52:43.043Z,99639.63
2018-12-25T23:55:09.279Z,99651.27
2018-12-25T23:57:35.528Z,99660.42
